Time;durP1;ratioP1;P1;durP2;ratioP2;P2;SDS_P1;SDS_P2;PMS_P1;PMS_P2;Temp;Humidity;BMP_temperature;BMP_pressure;BME280_temperature;BME280_humidity;BME280_pressure;Samples;Min_cycle;Max_cycle;Signal;HPM_P1;HPM_P2
2023/01/21 00:01:37;;;;;;;4.80;4.37;;;15.10;57.50;;;;;;5102501;28;20688;-48
2023/01/21 00:04:11;;;;;;;4.67;4.27;;;15.10;57.60;;;;;;5098129;28;20194;-48
2023/01/21 00:06:42;;;;;;;4.20;3.70;;;15.10;57.70;;;;;;5098666;28;20580;-48
2023/01/21 00:09:13;;;;;;;4.87;4.37;;;15.00;57.60;;;;;;5105850;28;20645;-48
2023/01/21 00:11:45;;;;;;;4.60;4.20;;;15.00;58.20;;;;;;5102962;28;20617;-48
2023/01/21 00:14:17;;;;;;;4.63;4.23;;;15.00;57.70;;;;;;5102925;28;21058;-48
2023/01/21 00:16:48;;;;;;;5.17;4.67;;;15.00;57.70;;;;;;5110422;28;20547;-48
2023/01/21 00:19:16;;;;;;;5.23;4.73;;;14.90;57.70;;;;;;5085557;28;20232;-48
2023/01/21 00:21:46;;;;;;;4.90;4.50;;;14.90;57.70;;;;;;5096440;28;20565;-48
2023/01/21 00:24:13;;;;;;;4.60;4.07;;;14.90;57.80;;;;;;5102977;28;20201;-48
2023/01/21 00:26:46;;;;;;;4.50;3.97;;;14.90;57.80;;;;;;5103539;28;20200;-48
2023/01/21 00:29:17;;;;;;;5.23;4.73;;;14.90;57.90;;;;;;5107948;28;20558;-48
2023/01/21 00:31:47;;;;;;;4.50;4.00;;;14.90;57.90;;;;;;5086432;28;20932;-48
2023/01/21 00:34:21;;;;;;;4.63;4.23;;;14.80;57.90;;;;;;5102545;28;20254;-48
2023/01/21 00:36:48;;;;;;;5.20;4.63;;;14.80;57.90;;;;;;5108959;28;20265;-48
2023/01/21 00:39:17;;;;;;;6.50;4.37;;;14.80;58.00;;;;;;5109732;28;20196;-48
2023/01/21 00:41:47;;;;;;;5.13;4.63;;;14.80;58.00;;;;;;5111853;27;20196;-48
2023/01/21 00:44:18;;;;;;;5.10;4.57;;;14.80;58.00;;;;;;5108662;28;20207;-48
2023/01/21 00:46:47;;;;;;;5.40;4.90;;;14.80;58.00;;;;;;5107509;28;20203;-48
2023/01/21 00:49:17;;;;;;;6.23;4.33;;;14.80;58.10;;;;;;5115720;27;20211;-48
2023/01/21 00:51:48;;;;;;;5.63;4.27;;;14.80;58.10;;;;;;5103136;28;20264;-48
2023/01/21 00:54:17;;;;;;;5.83;4.93;;;14.80;58.20;;;;;;5106031;28;20216;-48
2023/01/21 00:56:50;;;;;;;5.27;4.77;;;14.70;58.10;;;;;;5111166;27;20203;-48
2023/01/21 00:59:18;;;;;;;6.03;4.33;;;14.70;58.20;;;;;;5093079;28;20196;-48
2023/01/21 01:01:48;;;;;;;4.73;4.27;;;14.70;58.20;;;;;;5110030;28;20565;-48
2023/01/21 01:04:18;;;;;;;5.23;4.20;;;14.60;58.20;;;;;;5098461;28;20546;-48
2023/01/21 01:06:48;;;;;;;5.00;4.43;;;14.70;58.30;;;;;;5100306;27;20209;-48
2023/01/21 01:09:20;;;;;;;4.53;4.07;;;14.70;58.30;;;;;;5101524;28;20208;-45
2023/01/21 01:12:11;;;;;;;4.70;4.10;;;14.70;58.30;;;;;;5101646;28;20224;-44
2023/01/21 01:14:39;;;;;;;5.10;4.00;;;14.60;58.30;;;;;;5104852;28;20204;-44
2023/01/21 01:17:08;;;;;;;5.07;4.47;;;14.60;58.40;;;;;;5107246;27;20222;-45
2023/01/21 01:19:39;;;;;;;6.07;4.40;;;14.60;58.40;;;;;;5101613;28;20810;-45
2023/01/21 01:22:11;;;;;;;5.40;4.60;;;14.60;58.50;;;;;;5107072;28;20876;-44
2023/01/21 01:24:47;;;;;;;4.47;4.07;;;14.60;58.50;;;;;;5103445;28;20552;-44
2023/01/21 01:27:16;;;;;;;4.93;4.20;;;14.60;58.50;;;;;;5098623;27;20641;-44
2023/01/21 01:29:44;;;;;;;5.00;4.50;;;14.60;58.60;;;;;;5109062;27;20277;-45
2023/01/21 01:32:13;;;;;;;4.90;4.40;;;14.60;58.60;;;;;;5103480;28;20204;-44
2023/01/21 01:34:43;;;;;;;4.83;4.17;;;14.60;58.60;;;;;;5101701;28;20632;-45
2023/01/21 01:37:13;;;;;;;4.37;3.97;;;14.50;58.60;;;;;;5109885;27;20663;-44
2023/01/21 01:39:44;;;;;;;5.73;4.60;;;14.50;58.60;;;;;;5104674;28;20205;-45
2023/01/21 01:42:16;;;;;;;5.70;4.63;;;14.50;58.60;;;;;;5102765;28;20302;-44
2023/01/21 01:45:03;;;;;;;5.17;4.67;;;14.50;58.60;;;;;;5111422;28;20196;-45
2023/01/21 01:47:48;;;;;;;7.47;4.30;;;14.50;58.70;;;;;;5088004;28;20264;-45
2023/01/21 01:50:18;;;;;;;4.60;4.10;;;14.50;58.70;;;;;;5098443;28;20220;-45
2023/01/21 01:52:49;;;;;;;4.87;4.37;;;14.50;58.80;;;;;;5094228;28;20192;-45
2023/01/21 01:55:35;;;;;;;5.83;4.90;;;14.50;58.80;;;;;;5103926;28;20216;-45
2023/01/21 01:58:11;;;;;;;4.80;4.40;;;14.50;59.00;;;;;;5086626;28;20485;-45
2023/01/21 02:00:47;;;;;;;4.67;4.27;;;14.50;58.90;;;;;;5108429;28;20195;-44
2023/01/21 02:06:04;;;;;;;4.90;4.37;;;14.40;58.90;;;;;;5081445;28;20554;-44
2023/01/21 02:08:36;;;;;;;6.10;5.10;;;14.40;58.90;;;;;;5111044;27;20261;-44
2023/01/21 02:11:16;;;;;;;5.03;4.53;;;14.40;59.00;;;;;;5105100;28;20657;-45
2023/01/21 02:13:59;;;;;;;6.23;4.60;;;14.40;59.00;;;;;;5088631;28;20192;-46
2023/01/21 02:16:50;;;;;;;5.17;4.67;;;14.40;59.00;;;;;;5109254;27;20262;-44
2023/01/21 02:19:51;;;;;;;5.43;4.90;;;14.40;59.00;;;;;;5108922;27;20235;-45
2023/01/21 02:23:02;;;;;;;5.00;4.50;;;14.40;59.10;;;;;;5108871;28;20205;-45
2023/01/21 02:26:08;;;;;;;6.37;4.80;;;14.40;59.10;;;;;;5101523;28;20216;-45
2023/01/21 02:29:20;;;;;;;5.30;4.80;;;14.40;59.10;;;;;;5110240;27;20204;-45
2023/01/21 02:32:20;;;;;;;5.23;4.33;;;14.30;59.10;;;;;;5068949;28;20208;-44
2023/01/21 02:35:38;;;;;;;5.13;4.63;;;14.30;59.10;;;;;;5103326;28;20192;-44
2023/01/21 02:38:34;;;;;;;5.03;4.53;;;14.30;59.20;;;;;;5075666;28;20224;-45
2023/01/21 02:41:57;;;;;;;6.00;5.10;;;14.30;59.30;;;;;;5108988;28;20645;-45
2023/01/21 02:44:48;;;;;;;5.60;5.00;;;14.30;59.20;;;;;;5082843;28;20211;-45
2023/01/21 02:47:37;;;;;;;6.40;5.37;;;14.30;59.30;;;;;;5105416;28;20778;-45
2023/01/21 02:50:23;;;;;;;4.93;4.43;;;14.30;59.40;;;;;;5100263;28;20219;-44
2023/01/21 02:53:01;;;;;;;7.10;5.13;;;14.30;59.40;;;;;;5098553;28;20310;-45
2023/01/21 02:55:38;;;;;;;6.50;4.87;;;14.30;59.50;;;;;;5082600;28;20216;-44
2023/01/21 02:58:18;;;;;;;5.67;4.77;;;14.30;59.40;;;;;;5099196;28;20242;-44
2023/01/21 03:01:17;;;;;;;5.47;4.87;;;14.30;59.40;;;;;;5104106;28;20279;-44
2023/01/21 03:03:47;;;;;;;5.17;4.67;;;14.30;59.40;;;;;;5110462;27;20263;-45
2023/01/21 03:06:48;;;;;;;6.20;5.00;;;14.30;59.40;;;;;;5099490;28;20230;-44
2023/01/21 03:09:27;;;;;;;5.77;4.80;;;14.20;59.40;;;;;;5108105;28;20252;-44
2023/01/21 03:12:36;;;;;;;6.33;5.43;;;14.30;59.50;;;;;;5083676;28;20769;-45
2023/01/21 03:18:44;;;;;;;5.70;5.10;;;14.20;59.50;;;;;;5100430;27;20288;-44
2023/01/21 03:21:17;;;;;;;5.40;4.90;;;14.20;59.50;;;;;;5103195;28;20200;-46
2023/01/21 03:24:00;;;;;;;5.53;5.03;;;14.20;59.50;;;;;;5087651;28;20298;-45
2023/01/21 03:26:51;;;;;;;5.27;4.77;;;14.20;59.50;;;;;;5075804;28;20189;-45
2023/01/21 03:29:26;;;;;;;5.73;4.83;;;14.20;59.50;;;;;;5090206;28;20208;-44
2023/01/21 03:32:03;;;;;;;6.03;5.43;;;14.20;59.50;;;;;;5078620;28;20212;-44
2023/01/21 03:34:48;;;;;;;6.13;5.40;;;14.20;59.60;;;;;;5084037;28;20261;-44
2023/01/21 03:37:27;;;;;;;5.90;5.27;;;14.20;59.50;;;;;;5102273;28;20276;-44
2023/01/21 03:40:22;;;;;;;5.70;5.10;;;14.20;59.60;;;;;;5081508;28;20269;-45
2023/01/21 03:43:06;;;;;;;6.77;5.43;;;14.20;59.60;;;;;;5103855;28;20243;-45
2023/01/21 03:46:23;;;;;;;5.60;4.97;;;14.20;59.60;;;;;;5098412;28;20187;-45
2023/01/21 03:49:01;;;;;;;5.70;5.10;;;14.20;59.60;;;;;;5098299;28;20216;-44
2023/01/21 03:51:41;;;;;;;6.37;5.67;;;14.20;59.70;;;;;;5086028;28;20212;-44
2023/01/21 03:54:10;;;;;;;6.13;5.10;;;14.10;59.60;;;;;;5095623;28;20204;-44
2023/01/21 03:56:40;;;;;;;6.67;5.10;;;14.10;59.70;;;;;;5084937;28;20548;-44
2023/01/21 03:59:10;;;;;;;9.63;5.00;;;14.10;59.70;;;;;;5107356;28;20224;-44
2023/01/21 04:01:42;;;;;;;6.07;5.07;;;14.10;59.60;;;;;;5102156;28;20196;-45
2023/01/21 04:04:11;;;;;;;6.40;5.23;;;14.10;59.70;;;;;;5092125;28;20702;-45
2023/01/21 04:06:39;;;;;;;5.97;5.37;;;14.10;59.70;;;;;;5106968;28;20702;-44
2023/01/21 04:09:11;;;;;;;8.60;5.63;;;14.10;59.70;;;;;;5109122;27;20204;-45
2023/01/21 04:11:41;;;;;;;7.17;5.10;;;14.10;59.70;;;;;;5109245;28;20218;-44
2023/01/21 04:14:14;;;;;;;5.83;5.10;;;14.10;59.70;;;;;;5103786;28;20189;-44
2023/01/21 04:16:44;;;;;;;6.50;5.23;;;14.10;60.30;;;;;;5112665;28;20189;-45
2023/01/21 04:19:17;;;;;;;5.77;5.17;;;14.10;59.70;;;;;;5091500;27;20224;-44
2023/01/21 04:21:46;;;;;;;5.80;5.07;;;14.10;59.70;;;;;;5097388;28;20204;-44
2023/01/21 04:24:16;;;;;;;7.60;5.30;;;14.10;59.80;;;;;;5107909;28;20232;-44
2023/01/21 04:26:48;;;;;;;6.10;5.50;;;14.10;59.70;;;;;;5110797;28;20200;-44
2023/01/21 04:29:19;;;;;;;6.07;5.47;;;14.10;59.70;;;;;;5109262;27;20199;-44
2023/01/21 04:31:48;;;;;;;6.77;5.57;;;14.10;59.70;;;;;;5094282;28;20224;-45
2023/01/21 04:34:20;;;;;;;5.70;5.20;;;14.10;59.70;;;;;;5092733;28;20189;-44
2023/01/21 04:36:49;;;;;;;6.73;5.50;;;14.10;59.80;;;;;;5110784;28;20194;-44
2023/01/21 04:39:22;;;;;;;6.73;5.70;;;14.10;59.80;;;;;;5111805;27;20192;-45
2023/01/21 04:41:54;;;;;;;5.93;5.33;;;14.10;59.80;;;;;;5106836;28;20636;-44
2023/01/21 04:44:23;;;;;;;6.57;5.73;;;14.00;59.80;;;;;;5112041;28;20785;-44
2023/01/21 04:46:53;;;;;;;6.70;5.70;;;14.00;59.80;;;;;;5097997;27;20201;-44
2023/01/21 04:49:25;;;;;;;8.07;5.60;;;14.00;59.80;;;;;;5111807;28;20739;-44
2023/01/21 04:51:53;;;;;;;6.07;5.30;;;14.00;59.80;;;;;;5107487;28;20494;-44
2023/01/21 04:54:23;;;;;;;6.77;5.40;;;14.00;59.70;;;;;;5108939;28;20209;-44
2023/01/21 04:56:55;;;;;;;5.43;4.90;;;14.00;59.80;;;;;;5092030;28;20193;-44
2023/01/21 04:59:23;;;;;;;7.00;5.57;;;14.00;59.80;;;;;;5115253;27;20205;-44
2023/01/21 05:01:54;;;;;;;7.03;5.80;;;14.00;59.80;;;;;;5094849;28;20337;-44
2023/01/21 05:04:25;;;;;;;7.30;6.60;;;14.00;59.80;;;;;;5112048;28;20511;-45
2023/01/21 05:06:55;;;;;;;6.33;5.73;;;14.00;59.80;;;;;;5111328;28;20212;-44
2023/01/21 05:09:30;;;;;;;6.57;5.83;;;14.00;59.80;;;;;;5109629;28;20212;-45
2023/01/21 05:12:13;;;;;;;6.07;5.47;;;14.00;59.80;;;;;;5094785;28;20878;-44
2023/01/21 05:14:42;;;;;;;6.43;5.60;;;14.00;59.70;;;;;;5117349;28;20193;-44
2023/01/21 05:17:12;;;;;;;6.27;5.30;;;13.90;59.80;;;;;;5113056;28;20192;-45
2023/01/21 05:19:44;;;;;;;6.97;5.50;;;14.00;60.40;;;;;;5094587;28;20221;-44
2023/01/21 05:22:12;;;;;;;6.73;5.83;;;14.00;59.70;;;;;;5087319;28;20209;-44
2023/01/21 05:24:55;;;;;;;6.23;5.63;;;14.00;59.80;;;;;;5091511;28;20207;-45
2023/01/21 05:27:27;;;;;;;7.07;5.73;;;14.00;59.80;;;;;;5085579;28;20201;-45
2023/01/21 05:29:57;;;;;;;6.70;5.87;;;14.00;59.80;;;;;;5068926;28;20594;-44
2023/01/21 05:32:29;;;;;;;7.10;6.20;;;14.00;59.80;;;;;;5088576;28;20193;-44
2023/01/21 05:34:56;;;;;;;6.57;5.43;;;13.90;59.70;;;;;;5066748;28;20208;-45
2023/01/21 05:37:27;;;;;;;6.70;5.80;;;13.90;59.70;;;;;;5082981;28;20201;-44
2023/01/21 05:39:57;;;;;;;6.77;6.07;;;13.90;59.70;;;;;;5086027;28;20715;-44
2023/01/21 05:42:27;;;;;;;6.67;5.43;;;13.90;59.70;;;;;;5068014;28;20213;-44
2023/01/21 05:45:00;;;;;;;6.67;5.23;;;13.90;59.70;;;;;;5072916;28;20190;-45
2023/01/21 05:47:32;;;;;;;7.10;6.10;;;13.90;59.80;;;;;;5083007;28;20193;-45
2023/01/21 05:50:05;;;;;;;6.87;6.17;;;13.90;59.70;;;;;;5085533;28;20189;-44
2023/01/21 05:52:35;;;;;;;7.37;6.53;;;13.90;59.70;;;;;;5083652;28;20205;-44
2023/01/21 05:55:03;;;;;;;5.70;5.03;;;13.90;59.60;;;;;;5080238;28;20202;-45
2023/01/21 05:57:34;;;;;;;7.37;5.80;;;13.90;59.60;;;;;;5068522;28;20197;-44
2023/01/21 06:00:04;;;;;;;7.50;6.47;;;13.90;59.60;;;;;;5067573;28;20207;-44
2023/01/21 06:02:39;;;;;;;8.00;6.63;;;13.90;59.50;;;;;;5071146;28;20201;-44
2023/01/21 06:05:12;;;;;;;7.10;6.30;;;13.90;59.50;;;;;;5072578;28;20182;-45
2023/01/21 06:07:42;;;;;;;7.10;6.40;;;13.90;59.50;;;;;;5085000;28;20205;-45
2023/01/21 06:10:11;;;;;;;7.07;6.33;;;13.90;59.50;;;;;;5081317;28;20894;-44
2023/01/21 06:12:43;;;;;;;7.13;6.13;;;13.90;59.50;;;;;;5067521;28;20190;-44
2023/01/21 06:15:13;;;;;;;7.30;6.50;;;13.80;59.40;;;;;;5061716;28;20197;-44
2023/01/21 06:17:44;;;;;;;8.10;7.30;;;13.90;59.50;;;;;;5089042;28;20189;-44
2023/01/21 06:20:18;;;;;;;7.67;6.93;;;13.90;59.50;;;;;;5077438;28;20236;-44
2023/01/21 06:22:52;;;;;;;10.33;6.53;;;13.80;59.40;;;;;;5088276;28;20189;-45
2023/01/21 06:25:21;;;;;;;8.23;7.17;;;13.80;59.40;;;;;;5088843;28;20215;-44
2023/01/21 06:27:57;;;;;;;8.47;7.00;;;13.80;59.40;;;;;;5083348;28;20178;-44
2023/01/21 06:30:39;;;;;;;7.87;7.03;;;13.80;59.30;;;;;;5076179;28;20297;-45
2023/01/21 06:33:09;;;;;;;7.23;6.53;;;13.80;59.40;;;;;;5089196;28;20654;-44
2023/01/21 06:35:37;;;;;;;8.07;7.20;;;13.80;59.40;;;;;;5088895;28;20194;-44
2023/01/21 06:38:07;;;;;;;8.57;7.53;;;13.80;59.30;;;;;;5092240;28;20204;-44
2023/01/21 06:40:36;;;;;;;7.53;6.73;;;13.80;59.30;;;;;;5088977;28;20209;-44
2023/01/21 06:43:04;;;;;;;8.00;6.87;;;13.80;59.30;;;;;;5086492;28;20668;-44
2023/01/21 06:45:33;;;;;;;8.60;7.80;;;13.80;59.30;;;;;;5095558;28;20200;-44
2023/01/21 06:48:04;;;;;;;9.57;6.97;;;13.80;59.30;;;;;;5094648;28;20349;-44
2023/01/21 06:50:36;;;;;;;8.70;7.57;;;13.80;59.30;;;;;;5093089;28;20232;-45
2023/01/21 06:53:06;;;;;;;8.67;7.60;;;13.80;59.30;;;;;;5091032;28;20922;-45
2023/01/21 06:55:36;;;;;;;8.93;8.03;;;13.80;59.30;;;;;;5088729;28;20768;-45
2023/01/21 06:58:06;;;;;;;7.93;7.23;;;13.80;59.30;;;;;;5087445;28;20201;-44
2023/01/21 07:00:36;;;;;;;9.23;8.30;;;13.70;59.30;;;;;;5098926;28;20198;-44
2023/01/21 07:03:07;;;;;;;9.07;8.00;;;13.70;59.30;;;;;;5092711;28;20201;-44
2023/01/21 07:05:36;;;;;;;9.00;8.10;;;13.80;59.30;;;;;;5093302;28;20192;-44
2023/01/21 07:08:07;;;;;;;8.57;7.23;;;13.70;59.20;;;;;;5090453;28;20224;-44
2023/01/21 07:10:39;;;;;;;9.63;8.63;;;13.70;59.20;;;;;;5095445;28;20630;-44
2023/01/21 07:13:11;;;;;;;8.63;7.73;;;13.70;59.20;;;;;;5096104;28;20181;-44
2023/01/21 07:15:40;;;;;;;8.80;7.90;;;13.70;59.10;;;;;;5089595;28;20205;-45
2023/01/21 07:18:11;;;;;;;8.73;7.80;;;13.70;59.20;;;;;;5080716;28;20301;-44
2023/01/21 07:20:41;;;;;;;8.57;7.67;;;13.70;59.10;;;;;;5090609;28;20243;-44
2023/01/21 07:23:08;;;;;;;9.57;8.57;;;13.70;59.10;;;;;;5088463;28;20243;-44
2023/01/21 07:25:44;;;;;;;8.73;7.77;;;13.70;59.10;;;;;;5088970;28;20193;-44
2023/01/21 07:28:15;;;;;;;8.83;7.87;;;13.70;59.10;;;;;;5069321;28;20220;-44
2023/01/21 07:30:44;;;;;;;8.13;6.83;;;13.70;59.20;;;;;;5083524;28;20270;-44
2023/01/21 07:33:15;;;;;;;8.43;7.47;;;13.70;59.20;;;;;;5082434;28;20189;-44
2023/01/21 07:35:49;;;;;;;8.50;7.60;;;13.70;59.20;;;;;;5083215;28;20634;-45
2023/01/21 07:38:24;;;;;;;8.33;7.47;;;13.70;59.20;;;;;;5088958;28;20189;-44
2023/01/21 07:40:55;;;;;;;9.80;8.80;;;13.70;59.20;;;;;;5078628;28;20181;-45
2023/01/21 07:43:26;;;;;;;9.00;8.10;;;13.70;59.20;;;;;;5084143;28;20223;-44
2023/01/21 07:45:55;;;;;;;9.53;8.50;;;13.70;59.30;;;;;;5056501;28;20247;-45
2023/01/21 07:48:28;;;;;;;9.87;8.00;;;13.60;59.30;;;;;;5087293;28;20200;-44
2023/01/21 07:51:01;;;;;;;8.80;7.67;;;13.60;59.90;;;;;;5082710;28;20219;-44
2023/01/21 07:53:31;;;;;;;8.67;7.73;;;13.60;59.30;;;;;;5086040;28;20185;-44
2023/01/21 07:56:09;;;;;;;9.10;8.17;;;13.60;59.30;;;;;;5082054;28;20197;-44
2023/01/21 07:58:45;;;;;;;9.13;7.97;;;13.70;59.40;;;;;;5087418;28;20253;-44
2023/01/21 08:01:17;;;;;;;9.60;8.07;;;13.60;59.30;;;;;;5089090;28;20246;-44
2023/01/21 08:03:51;;;;;;;10.17;8.47;;;13.60;59.30;;;;;;5060581;28;20223;-44
2023/01/21 08:06:21;;;;;;;9.57;8.07;;;13.60;59.50;;;;;;5078594;28;20217;-44
2023/01/21 08:08:52;;;;;;;10.50;8.53;;;13.60;59.40;;;;;;5065563;28;20202;-45
2023/01/21 08:11:23;;;;;;;10.33;8.87;;;13.60;59.50;;;;;;5085873;28;20220;-45
2023/01/21 08:13:52;;;;;;;8.80;7.90;;;13.60;59.50;;;;;;5065748;28;20177;-44
2023/01/21 08:16:36;;;;;;;11.20;7.67;;;13.60;59.40;;;;;;5062913;28;20266;-45
2023/01/21 08:19:07;;;;;;;9.80;8.23;;;13.60;59.40;;;;;;5081663;28;20217;-44
2023/01/21 08:21:44;;;;;;;10.00;8.30;;;13.60;59.40;;;;;;5107215;28;20257;-44
2023/01/21 08:24:13;;;;;;;9.83;8.77;;;13.60;59.40;;;;;;5102216;28;20189;-44
2023/01/21 08:26:44;;;;;;;12.03;10.13;;;13.60;59.40;;;;;;5105377;28;20208;-44
2023/01/21 08:29:13;;;;;;;10.50;8.67;;;13.60;59.30;;;;;;5108729;28;20617;-45
2023/01/21 08:31:43;;;;;;;11.27;9.90;;;13.60;59.30;;;;;;5086460;28;20712;-44
2023/01/21 08:34:16;;;;;;;10.47;8.93;;;13.60;59.20;;;;;;5105880;28;20195;-44
2023/01/21 08:36:47;;;;;;;9.23;8.33;;;13.60;59.20;;;;;;5087393;28;20564;-44
2023/01/21 08:39:18;;;;;;;11.83;10.07;;;13.60;59.80;;;;;;5106195;28;20232;-44
2023/01/21 08:41:50;;;;;;;10.90;9.80;;;13.60;59.00;;;;;;5089410;28;20201;-44
2023/01/21 08:44:18;;;;;;;11.80;9.63;;;13.60;59.20;;;;;;5087259;28;20808;-44
2023/01/21 08:46:50;;;;;;;15.23;10.20;;;13.60;59.00;;;;;;5097825;28;20253;-44
2023/01/21 08:49:21;;;;;;;83.03;26.43;;;13.60;59.10;;;;;;5101123;28;20197;-44
2023/01/21 08:51:51;;;;;;;95.10;28.03;;;13.50;59.20;;;;;;5102123;28;20220;-44
2023/01/21 08:54:22;;;;;;;71.60;23.53;;;13.60;59.00;;;;;;5085340;28;20208;-44
2023/01/21 08:56:56;;;;;;;81.00;24.43;;;13.60;59.00;;;;;;5107727;27;20233;-44
2023/01/21 08:59:27;;;;;;;68.37;21.90;;;13.60;59.00;;;;;;5108195;28;20697;-44
2023/01/21 09:01:58;;;;;;;65.70;22.93;;;13.50;59.00;;;;;;5106221;27;20204;-44
2023/01/21 09:04:26;;;;;;;66.10;23.80;;;13.60;59.00;;;;;;5106005;27;20180;-44
2023/01/21 09:06:55;;;;;;;67.60;23.33;;;13.60;59.10;;;;;;5107021;28;20634;-44
2023/01/21 09:09:37;;;;;;;65.53;23.83;;;13.60;59.10;;;;;;5110694;28;20287;-44
2023/01/21 09:12:07;;;;;;;60.20;21.17;;;13.60;59.20;;;;;;5091246;28;20722;-44
2023/01/21 09:14:37;;;;;;;55.20;21.40;;;13.50;59.20;;;;;;5109999;27;20199;-44
2023/01/21 09:17:06;;;;;;;51.20;20.20;;;13.60;59.20;;;;;;5107773;28;20197;-44
2023/01/21 09:19:37;;;;;;;47.97;19.20;;;13.60;59.10;;;;;;5105522;28;20232;-44
2023/01/21 09:22:12;;;;;;;48.63;21.40;;;13.50;59.20;;;;;;5106913;27;20633;-44
2023/01/21 09:24:47;;;;;;;52.50;20.37;;;13.50;59.10;;;;;;5107441;28;20203;-44
2023/01/21 09:27:27;;;;;;;45.80;18.93;;;13.60;59.00;;;;;;5089063;28;20215;-44
2023/01/21 09:29:54;;;;;;;44.87;19.70;;;13.50;59.00;;;;;;5103245;28;20185;-44
2023/01/21 09:32:25;;;;;;;44.00;18.70;;;13.60;59.00;;;;;;5102738;27;20229;-45
2023/01/21 09:34:58;;;;;;;42.10;19.97;;;13.50;58.90;;;;;;5108503;28;20197;-44
2023/01/21 09:37:33;;;;;;;35.33;17.97;;;13.50;59.00;;;;;;5110725;28;20185;-44
2023/01/21 09:40:04;;;;;;;38.60;18.37;;;13.60;59.00;;;;;;5110726;28;20181;-44
2023/01/21 09:42:35;;;;;;;42.63;17.80;;;13.60;59.00;;;;;;5110886;28;20220;-44
2023/01/21 09:45:05;;;;;;;37.07;17.20;;;13.60;59.00;;;;;;5113288;28;20196;-44
2023/01/21 09:47:47;;;;;;;40.53;17.23;;;13.50;59.00;;;;;;5112631;28;20188;-44
2023/01/21 09:50:22;;;;;;;30.60;16.77;;;13.60;58.90;;;;;;5087428;28;20202;-44
2023/01/21 09:53:03;;;;;;;33.40;16.07;;;13.50;58.90;;;;;;5112643;27;20657;-44
2023/01/21 09:55:48;;;;;;;29.47;16.70;;;13.60;59.10;;;;;;5075816;28;20200;-44
2023/01/21 09:58:38;;;;;;;29.03;14.90;;;13.60;59.20;;;;;;5111483;27;20218;-44
2023/01/21 10:01:23;;;;;;;26.53;14.77;;;13.60;59.20;;;;;;5110823;27;20207;-44
2023/01/21 10:03:59;;;;;;;25.63;15.20;;;13.50;59.20;;;;;;5082304;28;20223;-46
2023/01/21 10:06:45;;;;;;;30.00;14.47;;;13.50;59.40;;;;;;5108224;28;20219;-44
2023/01/21 10:09:51;;;;;;;29.27;14.67;;;13.60;59.70;;;;;;5091887;28;20200;-45
2023/01/21 10:12:37;;;;;;;26.33;14.63;;;13.70;59.80;;;;;;5109153;28;20216;-44
2023/01/21 10:15:50;;;;;;;21.13;14.40;;;13.80;59.90;;;;;;5103433;28;20199;-45
2023/01/21 10:18:33;;;;;;;22.87;13.10;;;13.90;59.90;;;;;;5094434;28;20704;-45
2023/01/21 10:21:15;;;;;;;24.40;13.67;;;14.00;59.80;;;;;;5049929;28;20523;-45
2023/01/21 10:23:56;;;;;;;21.83;13.23;;;14.10;59.80;;;;;;5069451;28;20193;-45
2023/01/21 10:26:30;;;;;;;19.17;12.60;;;14.10;59.70;;;;;;5065692;28;20712;-46
2023/01/21 10:29:02;;;;;;;21.33;12.30;;;14.20;59.70;;;;;;5085553;28;20727;-46
2023/01/21 10:31:44;;;;;;;20.67;11.90;;;14.20;59.60;;;;;;5066652;28;20209;-45
2023/01/21 10:34:17;;;;;;;20.60;12.47;;;14.30;59.70;;;;;;5086875;28;20189;-45
2023/01/21 10:37:21;;;;;;;18.03;11.93;;;14.40;59.60;;;;;;5068951;28;20674;-45
2023/01/21 10:40:16;;;;;;;21.97;12.17;;;14.50;59.60;;;;;;5080935;28;20653;-44
2023/01/21 10:43:08;;;;;;;18.37;11.57;;;14.50;59.50;;;;;;5071262;28;20759;-45
2023/01/21 10:46:18;;;;;;;19.13;12.73;;;14.60;59.30;;;;;;5087326;28;20198;-46
2023/01/21 10:49:00;;;;;;;21.20;12.03;;;14.60;59.50;;;;;;5070501;28;20201;-45
2023/01/21 10:52:02;;;;;;;17.87;11.40;;;14.70;59.40;;;;;;5087175;28;20207;-45
2023/01/21 10:55:01;;;;;;;16.73;12.07;;;14.70;59.20;;;;;;5047434;28;20225;-45
2023/01/21 10:57:54;;;;;;;16.40;11.27;;;14.70;59.30;;;;;;5087460;28;20205;-45
2023/01/21 11:00:31;;;;;;;16.93;11.13;;;14.80;59.10;;;;;;5086510;28;20196;-45
2023/01/21 11:03:44;;;;;;;15.87;10.43;;;14.80;59.10;;;;;;5066836;28;20208;-45
2023/01/21 11:06:21;;;;;;;15.67;10.27;;;14.90;59.00;;;;;;5060246;28;20259;-45
2023/01/21 11:08:58;;;;;;;13.87;10.60;;;14.90;58.80;;;;;;5086394;28;20196;-45
2023/01/21 11:11:35;;;;;;;17.20;11.07;;;14.90;58.60;;;;;;5065481;28;20201;-45
2023/01/21 11:14:06;;;;;;;15.40;10.03;;;15.00;58.00;;;;;;5066848;28;20197;-44
2023/01/21 11:16:48;;;;;;;16.00;11.23;;;15.00;57.80;;;;;;5087054;28;20196;-44
2023/01/21 11:19:29;;;;;;;14.77;10.50;;;15.00;57.50;;;;;;5063552;28;20229;-44
2023/01/21 11:22:05;;;;;;;15.37;10.40;;;15.00;57.50;;;;;;5084416;28;20200;-44
2023/01/21 11:24:47;;;;;;;14.80;10.13;;;14.90;57.40;;;;;;5067640;28;20644;-44
2023/01/21 11:27:37;;;;;;;13.17;10.33;;;14.90;57.30;;;;;;5079315;28;20193;-44
2023/01/21 11:30:52;;;;;;;15.17;10.60;;;14.80;57.30;;;;;;5080225;28;20225;-44
2023/01/21 11:33:29;;;;;;;14.37;9.67;;;14.80;57.30;;;;;;5079994;28;20217;-44
2023/01/21 11:36:20;;;;;;;12.80;9.73;;;14.80;57.30;;;;;;5079406;28;20214;-45
2023/01/21 11:39:03;;;;;;;13.53;10.70;;;14.80;57.30;;;;;;5085886;28;20599;-44
2023/01/21 11:41:35;;;;;;;15.40;10.90;;;14.70;57.30;;;;;;5068115;28;20197;-44
2023/01/21 11:44:20;;;;;;;12.30;9.53;;;14.70;57.40;;;;;;5081576;28;20221;-44
2023/01/21 11:47:02;;;;;;;12.60;9.53;;;14.70;57.40;;;;;;5057334;28;20224;-44
2023/01/21 11:49:44;;;;;;;13.40;10.60;;;14.60;57.40;;;;;;5088568;28;20199;-44
2023/01/21 11:52:17;;;;;;;11.67;9.27;;;14.60;57.40;;;;;;5085743;28;20673;-44
2023/01/21 11:54:46;;;;;;;12.23;9.43;;;14.60;57.60;;;;;;5094567;28;20286;-44
2023/01/21 11:57:34;;;;;;;12.37;9.50;;;14.60;57.60;;;;;;5085782;28;20196;-44
2023/01/21 12:00:17;;;;;;;11.23;9.03;;;14.60;57.60;;;;;;5083503;28;20192;-44
2023/01/21 12:02:54;;;;;;;12.90;9.77;;;14.60;57.60;;;;;;5081378;28;20224;-44
2023/01/21 12:05:42;;;;;;;12.47;8.70;;;14.50;57.70;;;;;;5075320;28;20199;-45
2023/01/21 12:08:24;;;;;;;11.77;8.53;;;14.60;58.20;;;;;;5073679;28;20216;-44
2023/01/21 12:11:06;;;;;;;8.83;7.10;;;14.70;58.50;;;;;;5083286;28;20242;-45
2023/01/21 12:14:10;;;;;;;9.27;6.87;;;14.90;59.10;;;;;;5065464;28;20221;-45
2023/01/21 12:17:05;;;;;;;10.53;6.47;;;15.10;58.30;;;;;;5082792;28;20615;-45
2023/01/21 12:20:10;;;;;;;8.77;5.87;;;15.30;58.20;;;;;;5072517;28;20227;-46
2023/01/21 12:23:19;;;;;;;7.07;5.63;;;15.50;58.10;;;;;;5057171;28;20196;-45
2023/01/21 12:26:01;;;;;;;5.97;5.03;;;15.70;58.00;;;;;;5023575;28;20211;-45
2023/01/21 12:28:48;;;;;;;8.27;5.50;;;15.90;58.00;;;;;;5039557;28;20224;-45
2023/01/21 12:31:36;;;;;;;7.50;5.20;;;16.10;57.80;;;;;;5088021;28;20258;-45
2023/01/21 12:34:19;;;;;;;6.17;5.40;;;16.20;57.60;;;;;;5084648;28;20246;-45
2023/01/21 12:36:57;;;;;;;5.70;4.83;;;16.40;57.40;;;;;;5070921;28;20443;-45
2023/01/21 12:39:41;;;;;;;5.27;4.73;;;16.50;57.10;;;;;;5087106;28;20767;-46
2023/01/21 12:42:50;;;;;;;5.73;4.37;;;16.70;56.30;;;;;;5086770;28;20618;-47
2023/01/21 12:45:31;;;;;;;7.30;5.20;;;16.90;56.50;;;;;;5031366;28;20221;-45
2023/01/21 12:48:34;;;;;;;6.67;5.10;;;17.00;55.60;;;;;;5012039;28;20213;-45
2023/01/21 12:51:09;;;;;;;6.83;4.60;;;17.20;55.50;;;;;;4998287;28;20293;-45
2023/01/21 12:54:17;;;;;;;6.40;3.90;;;17.40;55.40;;;;;;5030959;28;20233;-45
2023/01/21 12:57:12;;;;;;;4.93;4.20;;;17.60;55.80;;;;;;5028499;28;20195;-46
2023/01/21 12:59:55;;;;;;;4.83;3.60;;;17.80;55.30;;;;;;5021310;28;20231;-46
2023/01/21 13:03:21;;;;;;;5.30;3.90;;;18.10;55.40;;;;;;5031328;28;20203;-49
2023/01/21 13:06:04;;;;;;;5.60;4.10;;;18.20;55.20;;;;;;4955129;28;20232;-46
2023/01/21 13:09:11;;;;;;;4.60;3.73;;;18.30;55.40;;;;;;4953666;28;20659;-46
2023/01/21 13:11:53;;;;;;;5.17;3.97;;;18.40;55.20;;;;;;4951748;28;20201;-46
2023/01/21 13:14:55;;;;;;;4.67;3.97;;;18.50;54.60;;;;;;4945944;28;20694;-45
2023/01/21 13:17:53;;;;;;;6.73;6.03;;;18.70;54.20;;;;;;4951555;28;20201;-45
2023/01/21 13:20:27;;;;;;;9.20;5.20;;;18.80;50.30;;;;;;4989254;28;20240;-45
2023/01/21 13:23:16;;;;;;;7.47;5.20;;;18.70;50.30;;;;;;4990957;28;20204;-46
2023/01/21 13:26:16;;;;;;;9.20;5.37;;;18.50;51.20;;;;;;4992018;28;20224;-48
2023/01/21 13:29:04;;;;;;;8.87;5.57;;;18.30;51.30;;;;;;4993052;28;20200;-48
2023/01/21 13:31:59;;;;;;;10.40;6.60;;;18.10;51.90;;;;;;4984992;28;20219;-48
2023/01/21 13:34:49;;;;;;;9.30;5.77;;;17.90;52.10;;;;;;5087030;28;20563;-48
2023/01/21 13:37:33;;;;;;;10.10;6.17;;;17.70;52.30;;;;;;5094085;28;20554;-48
2023/01/21 13:40:37;;;;;;;7.20;6.00;;;17.70;52.60;;;;;;5089745;27;20187;-48
2023/01/21 13:43:36;;;;;;;7.03;6.00;;;17.50;52.40;;;;;;5086683;27;20227;-46